Time;durP1;ratioP1;P1;durP2;ratioP2;P2;SDS_P1;SDS_P2;PMS_P1;PMS_P2;Temp;Humidity;BMP_temperature;BMP_pressure;BME280_temperature;BME280_humidity;BME280_pressure;Samples;Min_cycle;Max_cycle;Signal;HPM_P1;HPM_P2
2021/11/14 00:10:10;;;;;;;63;76.2;;;;;;;5;78.4;99060;;;;
2021/11/14 00:20:10;;;;;;;63;76.2;;;;;;;5.1;78.3;99060;;;;
2021/11/14 00:30:10;;;;;;;63;76.2;;;;;;;4.9;78.7;99070;;;;
2021/11/14 00:40:10;;;;;;;62;74.5;;;;;;;4.8;78.8;99060;;;;
2021/11/14 00:51:10;;;;;;;62;74.5;;;;;;;4.9;78.2;99070;;;;
2021/11/14 01:02:10;;;;;;;62;74.5;;;;;;;4.8;78.9;99070;;;;
2021/11/14 01:12:10;;;;;;;61.3;72.5;;;;;;;5;78.6;99060;;;;
2021/11/14 01:22:11;;;;;;;61.3;72.5;;;;;;;4.9;78.7;99070;;;;
2021/11/14 01:32:10;;;;;;;61.3;72.5;;;;;;;5.1;78.6;99080;;;;
2021/11/14 01:42:10;;;;;;;59.7;73.6;;;;;;;5.2;78.4;99070;;;;
2021/11/14 01:52:10;;;;;;;59.7;73.6;;;;;;;5.3;78.5;99070;;;;
2021/11/14 02:02:11;;;;;;;59.7;73.6;;;;;;;5.3;78.1;99060;;;;
2021/11/14 02:12:10;;;;;;;60;74;;;;;;;5.3;78.5;99070;;;;
2021/11/14 02:22:10;;;;;;;60;74;;;;;;;5.4;78.4;99080;;;;
2021/11/14 02:32:12;;;;;;;60;74;;;;;;;5.4;78.3;99080;;;;
2021/11/14 02:42:10;;;;;;;57.6;72.1;;;;;;;5.3;78.2;99080;;;;
2021/11/14 02:52:11;;;;;;;57.6;72.1;;;;;;;5.1;78.5;99080;;;;
2021/11/14 03:02:10;;;;;;;57.6;72.1;;;;;;;5.3;78.3;99090;;;;
2021/11/14 03:12:10;;;;;;;56.7;66.6;;;;;;;5.3;77.8;99090;;;;
2021/11/14 03:22:11;;;;;;;56.7;66.6;;;;;;;4.9;78.7;99100;;;;
2021/11/14 03:32:10;;;;;;;56.7;66.6;;;;;;;4.9;78.9;99100;;;;
2021/11/14 03:43:10;;;;;;;54.1;63.3;;;;;;;5;78.3;99100;;;;
2021/11/14 03:53:10;;;;;;;54.1;63.3;;;;;;;5;78.5;99100;;;;
2021/11/14 04:03:10;;;;;;;54.1;63.3;;;;;;;4.9;78.3;99110;;;;
2021/11/14 04:14:10;;;;;;;53.7;63.4;;;;;;;4.8;78.4;99120;;;;
2021/11/14 04:24:10;;;;;;;53.7;63.4;;;;;;;4.7;78.5;99130;;;;
2021/11/14 04:34:10;;;;;;;52.8;65.4;;;;;;;4.5;78.9;99140;;;;
2021/11/14 04:44:10;;;;;;;52.8;65.4;;;;;;;4.5;79.3;99140;;;;
2021/11/14 04:54:10;;;;;;;52.8;65.4;;;;;;;4.5;79.2;99150;;;;
2021/11/14 05:04:10;;;;;;;51.1;61.1;;;;;;;4.4;79.7;99160;;;;
2021/11/14 05:14:10;;;;;;;51.1;61.1;;;;;;;4.3;79.2;99170;;;;
2021/11/14 05:24:10;;;;;;;51.1;61.1;;;;;;;4.3;78.8;99180;;;;
2021/11/14 05:34:10;;;;;;;50;59.8;;;;;;;4.4;79;99180;;;;
2021/11/14 05:44:10;;;;;;;50;59.8;;;;;;;4.5;79.1;99190;;;;
2021/11/14 05:54:10;;;;;;;50;59.8;;;;;;;4.5;79.5;99200;;;;
2021/11/14 06:04:18;;;;;;;51.2;64.1;;;;;;;4.7;79.3;99200;;;;
2021/11/14 06:14:10;;;;;;;51.2;64.1;;;;;;;4.8;79.2;99220;;;;
2021/11/14 06:24:10;;;;;;;51.2;64.1;;;;;;;5;79;99230;;;;
2021/11/14 06:34:10;;;;;;;49.2;62.1;;;;;;;5.1;78.9;99250;;;;
2021/11/14 06:44:10;;;;;;;49.2;62.1;;;;;;;5.2;78.7;99260;;;;
2021/11/14 06:54:10;;;;;;;49.2;62.1;;;;;;;5.3;78.6;99280;;;;
2021/11/14 07:04:10;;;;;;;51.3;65;;;;;;;5.4;78.1;99280;;;;
2021/11/14 07:14:10;;;;;;;51.3;65;;;;;;;5.3;78.8;99300;;;;
2021/11/14 07:24:10;;;;;;;51.3;65;;;;;;;5.4;78.4;99300;;;;
2021/11/14 07:34:10;;;;;;;54.8;68.7;;;;;;;5.3;78;99300;;;;
2021/11/14 07:44:10;;;;;;;54.8;68.7;;;;;;;5.6;77.6;99300;;;;
2021/11/14 07:55:10;;;;;;;54.8;68.7;;;;;;;5.8;77;99310;;;;
2021/11/14 08:05:10;;;;;;;51.8;63;;;;;;;5.9;77.1;99310;;;;
2021/11/14 08:15:10;;;;;;;51.8;63;;;;;;;6.1;76.5;99320;;;;
2021/11/14 08:25:10;;;;;;;51.8;63;;;;;;;6.4;75.6;99320;;;;
2021/11/14 08:35:10;;;;;;;54.8;67.7;;;;;;;6.9;75.4;99330;;;;
2021/11/14 08:45:10;;;;;;;54.8;67.7;;;;;;;7.1;74.1;99340;;;;
2021/11/14 08:55:10;;;;;;;54.8;67.7;;;;;;;7.2;73.5;99350;;;;
2021/11/14 09:05:10;;;;;;;59.6;71.6;;;;;;;7.3;73.8;99350;;;;
2021/11/14 09:15:11;;;;;;;59.6;71.6;;;;;;;7.1;74;99340;;;;
2021/11/14 09:26:10;;;;;;;59.6;71.6;;;;;;;7.2;72.5;99350;;;;
2021/11/14 09:36:10;;;;;;;58.4;77.1;;;;;;;7.7;71.9;99360;;;;
2021/11/14 09:46:10;;;;;;;58.4;77.1;;;;;;;7.5;72.1;99360;;;;
2021/11/14 09:56:10;;;;;;;58.4;77.1;;;;;;;7.8;71.6;99360;;;;
2021/11/14 10:06:24;;;;;;;47.1;55;;;;;;;7.8;71.3;99360;;;;
2021/11/14 10:15:01;;;;;;;47.1;55;;;;;;;7.9;70.7;99370;;;;
2021/11/14 10:25:00;;;;;;;47.1;55;;;;;;;7.9;71.3;99370;;;;
2021/11/14 10:36:00;;;;;;;46;54.7;;;;;;;7.9;70.7;99380;;;;
2021/11/14 10:46:00;;;;;;;46;54.7;;;;;;;8;70.6;99390;;;;
2021/11/14 10:56:00;;;;;;;46;54.7;;;;;;;7.9;70.7;99390;;;;
2021/11/14 11:07:02;;;;;;;44;61.9;;;;;;;8.1;71.1;99380;;;;
2021/11/14 11:18:00;;;;;;;44;61.9;;;;;;;8.2;70.8;99380;;;;
2021/11/14 11:29:00;;;;;;;44;61.9;;;;;;;8.2;70.6;99390;;;;
2021/11/14 11:39:00;;;;;;;63.5;81.2;;;;;;;8.1;70.2;99390;;;;
2021/11/14 11:50:00;;;;;;;63.5;81.2;;;;;;;8.2;70.5;99390;;;;
2021/11/14 12:01:00;;;;;;;63.5;81.2;;;;;;;8;71.3;99400;;;;
2021/11/14 12:11:00;;;;;;;53.3;63.7;;;;;;;8.1;70.7;99400;;;;
2021/11/14 12:22:00;;;;;;;53.3;63.7;;;;;;;8.3;70.1;99410;;;;
2021/11/14 12:33:00;;;;;;;50;60.2;;;;;;;8;70.8;99420;;;;
2021/11/14 12:44:00;;;;;;;50;60.2;;;;;;;8.1;70.9;99420;;;;
2021/11/14 12:54:01;;;;;;;50;60.2;;;;;;;7.7;72;99420;;;;
2021/11/14 13:05:00;;;;;;;50.7;62.8;;;;;;;7.9;72;99420;;;;
2021/11/14 13:16:00;;;;;;;50.7;62.8;;;;;;;7.8;72.5;99420;;;;
2021/11/14 13:26:00;;;;;;;50.7;62.8;;;;;;;7.8;72.2;99430;;;;
2021/11/14 13:37:00;;;;;;;56.7;65.4;;;;;;;7.6;73.2;99440;;;;
2021/11/14 13:47:00;;;;;;;56.7;65.4;;;;;;;7.6;72.5;99440;;;;
2021/11/14 13:58:00;;;;;;;56.7;65.4;;;;;;;7.7;72.4;99450;;;;
2021/11/14 14:08:00;;;;;;;46.5;57;;;;;;;7.3;73.3;99470;;;;
2021/11/14 14:19:00;;;;;;;46.5;57;;;;;;;7.2;73.6;99480;;;;
2021/11/14 14:29:00;;;;;;;46.5;57;;;;;;;7.2;74.2;99480;;;;
2021/11/14 14:40:00;;;;;;;63.7;79.5;;;;;;;7.3;73.7;99480;;;;
2021/11/14 14:50:00;;;;;;;63.7;79.5;;;;;;;7.3;73.7;99500;;;;
2021/11/14 15:01:00;;;;;;;63.7;79.5;;;;;;;7.1;74.3;99510;;;;
2021/11/14 15:12:00;;;;;;;49.3;59.2;;;;;;;7;74.8;99510;;;;
2021/11/14 15:22:00;;;;;;;49.3;59.2;;;;;;;7;74.9;99520;;;;
2021/11/14 15:32:00;;;;;;;49.3;59.2;;;;;;;7.1;74.5;99540;;;;
2021/11/14 15:43:00;;;;;;;50;62.6;;;;;;;7;74.6;99560;;;;
2021/11/14 15:54:00;;;;;;;50;62.6;;;;;;;7.1;74.4;99580;;;;
2021/11/14 16:05:00;;;;;;;79.2;96.2;;;;;;;7.1;74.4;99590;;;;
2021/11/14 16:15:01;;;;;;;79.2;96.2;;;;;;;7.1;74.4;99600;;;;
2021/11/14 16:26:00;;;;;;;79.2;96.2;;;;;;;7.1;74.6;99610;;;;
2021/11/14 16:37:00;;;;;;;52.2;63.6;;;;;;;7;74.8;99620;;;;
2021/11/14 16:47:00;;;;;;;52.2;63.6;;;;;;;6.8;75.3;99620;;;;
2021/11/14 16:58:00;;;;;;;52.2;63.6;;;;;;;6.9;75.2;99630;;;;
2021/11/14 17:09:00;;;;;;;48.8;65.7;;;;;;;6.9;75.3;99640;;;;
2021/11/14 17:19:01;;;;;;;48.8;65.7;;;;;;;6.8;75.5;99650;;;;
2021/11/14 17:30:00;;;;;;;48.8;65.7;;;;;;;6.9;75.3;99660;;;;
2021/11/14 17:41:00;;;;;;;54.4;64.9;;;;;;;7;75.3;99670;;;;
2021/11/14 17:51:03;;;;;;;54.4;64.9;;;;;;;7;75.4;99680;;;;
2021/11/14 18:02:00;;;;;;;54.4;64.9;;;;;;;6.9;75.6;99680;;;;
2021/11/14 18:12:00;;;;;;;46.2;56.1;;;;;;;6.9;75.5;99690;;;;
2021/11/14 18:23:00;;;;;;;46.2;56.1;;;;;;;6.9;75.3;99690;;;;
2021/11/14 18:33:00;;;;;;;50.8;65.7;;;;;;;6.9;75.5;99700;;;;
2021/11/14 18:43:01;;;;;;;50.8;65.7;;;;;;;6.9;75.4;99700;;;;
2021/11/14 18:53:00;;;;;;;50.8;65.7;;;;;;;6.8;75.6;99700;;;;
2021/11/14 19:03:00;;;;;;;61.5;72.2;;;;;;;6.7;76;99710;;;;
2021/11/14 19:13:00;;;;;;;61.5;72.2;;;;;;;6.6;76.6;99710;;;;
2021/11/14 19:24:00;;;;;;;61.5;72.2;;;;;;;6.6;76.6;99710;;;;
2021/11/14 19:35:00;;;;;;;50.6;60.4;;;;;;;6.5;77.2;99710;;;;
2021/11/14 19:45:00;;;;;;;50.6;60.4;;;;;;;6.6;77.1;99730;;;;
2021/11/14 19:55:00;;;;;;;50.6;60.4;;;;;;;6.5;77.2;99740;;;;
2021/11/14 20:05:00;;;;;;;52.7;66.5;;;;;;;6.6;77;99730;;;;
2021/11/14 20:15:02;;;;;;;52.7;66.5;;;;;;;6.6;76.9;99740;;;;
2021/11/14 20:26:00;;;;;;;52.7;66.5;;;;;;;6.6;77.1;99740;;;;
2021/11/14 20:37:00;;;;;;;48.4;56.6;;;;;;;6.4;77.7;99740;;;;
2021/11/14 20:47:00;;;;;;;48.4;56.6;;;;;;;6.4;77.7;99750;;;;
2021/11/14 20:57:00;;;;;;;48.4;56.6;;;;;;;6.5;77.7;99760;;;;
2021/11/14 21:07:00;;;;;;;46.6;54.1;;;;;;;6.5;77.9;99760;;;;
2021/11/14 21:17:00;;;;;;;46.6;54.1;;;;;;;6.5;77.7;99770;;;;
2021/11/14 21:27:00;;;;;;;46.6;54.1;;;;;;;6.5;78.3;99770;;;;
2021/11/14 21:38:16;;;;;;;43;53.3;;;;;;;6.5;78.5;99770;;;;
2021/11/14 21:48:01;;;;;;;43;53.3;;;;;;;6.5;78.4;99780;;;;
2021/11/14 21:58:00;;;;;;;43;53.3;;;;;;;6.3;79.4;99770;;;;
2021/11/14 22:08:00;;;;;;;49.2;55.4;;;;;;;6.3;79.7;99780;;;;
2021/11/14 22:19:00;;;;;;;49.2;55.4;;;;;;;6.2;80.1;99780;;;;
2021/11/14 22:29:01;;;;;;;49.2;55.4;;;;;;;6.1;80.3;99790;;;;
2021/11/14 22:40:00;;;;;;;53.5;64.5;;;;;;;6.2;80.2;99800;;;;
2021/11/14 22:50:00;;;;;;;53.5;64.5;;;;;;;6.4;79.8;99800;;;;
2021/11/14 23:00:00;;;;;;;53.5;64.5;;;;;;;6.2;80.2;99810;;;;
2021/11/14 23:10:00;;;;;;;53.9;71.6;;;;;;;6.1;80.5;99810;;;;
2021/11/14 23:21:00;;;;;;;53.9;71.6;;;;;;;6.1;80.8;99810;;;;
2021/11/14 23:31:00;;;;;;;53.9;71.6;;;;;;;6.1;81;99810;;;;
2021/11/14 23:42:06;;;;;;;57.4;69.6;;;;;;;6.2;81;99820;;;;
2021/11/14 23:52:04;;;;;;;57.4;69.6;;;;;;;6.1;81.4;99820;;;;
